Time;durP1;ratioP1;P1;durP2;ratioP2;P2;SDS_P1;SDS_P2;PMS_P1;PMS_P2;Temp;Humidity;BMP_temperature;BMP_pressure;BME280_temperature;BME280_humidity;BME280_pressure;Samples;Min_cycle;Max_cycle;Signal;HPM_P1;HPM_P2
2022/10/27 00:00:30;;;;;;;3.10;2.58;;;11.20;99.90;;;;;;5011027;28;20206;-67
2022/10/27 00:02:57;;;;;;;2.88;2.58;;;11.20;99.90;;;;;;5010886;28;20549;-66
2022/10/27 00:05:23;;;;;;;4.45;2.83;;;11.20;99.90;;;;;;5010948;28;20227;-67
2022/10/27 00:07:50;;;;;;;4.53;2.47;;;11.20;99.90;;;;;;5011141;28;20226;-67
2022/10/27 00:10:17;;;;;;;3.47;2.22;;;11.20;99.90;;;;;;5011095;28;20203;-67
2022/10/27 00:12:44;;;;;;;2.88;2.47;;;11.20;99.90;;;;;;5010748;28;20214;-67
2022/10/27 00:15:12;;;;;;;2.58;2.38;;;11.10;99.90;;;;;;5010981;28;20223;-67
2022/10/27 00:17:41;;;;;;;4.75;2.95;;;11.10;99.90;;;;;;5011170;28;20209;-67
2022/10/27 00:20:08;;;;;;;2.85;2.45;;;11.10;99.90;;;;;;5011110;28;20218;-67
2022/10/27 00:22:35;;;;;;;2.27;1.90;;;11.10;99.90;;;;;;5010405;28;20667;-67
2022/10/27 00:25:02;;;;;;;3.10;2.40;;;11.10;99.90;;;;;;5011106;28;20497;-67
2022/10/27 00:27:29;;;;;;;4.82;2.65;;;11.00;99.90;;;;;;5010654;28;20223;-67
2022/10/27 00:29:55;;;;;;;2.53;2.30;;;11.00;99.90;;;;;;5010944;28;20199;-67
2022/10/27 00:32:22;;;;;;;4.15;2.72;;;11.00;99.90;;;;;;5010197;28;20203;-67
2022/10/27 00:34:50;;;;;;;3.60;2.65;;;11.00;99.90;;;;;;5010757;28;20722;-66
2022/10/27 00:37:17;;;;;;;3.45;2.58;;;11.00;99.90;;;;;;5011015;28;20210;-67
2022/10/27 00:39:44;;;;;;;5.50;2.88;;;10.90;99.90;;;;;;5010932;28;20203;-66
2022/10/27 00:42:12;;;;;;;4.53;2.65;;;10.90;99.90;;;;;;5010385;28;20203;-67
2022/10/27 00:44:40;;;;;;;3.50;2.70;;;10.90;99.90;;;;;;5010790;28;20234;-67
2022/10/27 00:47:16;;;;;;;2.83;2.55;;;10.90;99.90;;;;;;5010720;28;20705;-67
2022/10/27 00:49:47;;;;;;;6.80;2.35;;;10.90;99.90;;;;;;5010812;28;20211;-67
2022/10/27 00:52:20;;;;;;;5.25;2.80;;;10.90;99.90;;;;;;5010138;28;20226;-67
2022/10/27 00:54:47;;;;;;;3.33;2.65;;;10.90;99.90;;;;;;5010789;28;20725;-67
2022/10/27 00:57:15;;;;;;;3.30;2.20;;;10.80;99.90;;;;;;5010829;28;20666;-67
2022/10/27 00:59:42;;;;;;;2.78;2.58;;;10.80;99.90;;;;;;5010661;28;20211;-67
2022/10/27 01:02:10;;;;;;;3.47;2.33;;;10.80;99.90;;;;;;5010151;28;20689;-67
2022/10/27 01:04:44;;;;;;;3.65;2.75;;;10.80;99.90;;;;;;5011274;28;20262;-67
2022/10/27 01:07:13;;;;;;;2.60;2.15;;;10.80;99.90;;;;;;5014246;28;20202;-67
2022/10/27 01:09:41;;;;;;;3.67;2.30;;;10.70;99.90;;;;;;5014301;28;20207;-67
2022/10/27 01:12:08;;;;;;;2.97;2.70;;;10.70;99.90;;;;;;5013891;28;20211;-67
2022/10/27 01:14:35;;;;;;;4.00;2.30;;;10.70;99.90;;;;;;5014047;28;20231;-67
2022/10/27 01:17:11;;;;;;;4.55;2.83;;;10.70;99.90;;;;;;5014625;28;20848;-67
2022/10/27 01:19:59;;;;;;;3.35;2.30;;;10.70;99.90;;;;;;5014025;28;20234;-67
2022/10/27 01:22:30;;;;;;;3.53;3.22;;;10.60;99.90;;;;;;5013498;28;20206;-67
2022/10/27 01:25:23;;;;;;;3.85;3.17;;;10.60;99.90;;;;;;5013980;28;20719;-67
2022/10/27 01:28:16;;;;;;;9.88;2.65;;;10.60;99.90;;;;;;5014116;28;20250;-67
2022/10/27 01:31:09;;;;;;;4.68;3.63;;;10.60;99.90;;;;;;5014091;28;20213;-67
2022/10/27 01:33:40;;;;;;;2.78;2.50;;;10.50;99.90;;;;;;5003778;28;20698;-67
2022/10/27 01:36:15;;;;;;;4.20;3.08;;;10.50;99.90;;;;;;5013887;28;20215;-68
2022/10/27 01:38:48;;;;;;;2.60;2.40;;;10.50;99.90;;;;;;5013792;28;20195;-67
2022/10/27 01:41:20;;;;;;;2.45;2.25;;;10.50;99.90;;;;;;5013235;28;20207;-67
2022/10/27 01:43:51;;;;;;;4.47;2.75;;;10.40;99.90;;;;;;5013678;28;20215;-67
2022/10/27 01:46:19;;;;;;;7.30;2.70;;;10.40;99.90;;;;;;5013576;28;20229;-67
2022/10/27 01:48:46;;;;;;;5.30;2.72;;;10.40;99.90;;;;;;5013552;28;20237;-67
2022/10/27 01:51:14;;;;;;;3.63;3.10;;;10.40;99.90;;;;;;5013042;28;20207;-67
2022/10/27 01:53:45;;;;;;;3.17;2.67;;;10.30;99.90;;;;;;5013487;28;20705;-67
2022/10/27 01:56:37;;;;;;;2.97;2.70;;;10.30;99.90;;;;;;5013612;28;20203;-67
2022/10/27 01:59:21;;;;;;;3.25;1.95;;;10.30;99.90;;;;;;5013514;28;20214;-67
2022/10/27 02:02:01;;;;;;;3.45;2.70;;;10.30;99.90;;;;;;5013017;28;20203;-67
2022/10/27 02:04:38;;;;;;;3.65;3.08;;;10.30;99.90;;;;;;5013080;28;20238;-66
2022/10/27 02:07:09;;;;;;;5.68;3.00;;;10.30;99.90;;;;;;5013360;28;20199;-66
2022/10/27 02:09:42;;;;;;;6.60;2.50;;;10.20;99.90;;;;;;5013029;28;20702;-67
2022/10/27 02:12:14;;;;;;;6.90;2.90;;;10.20;99.90;;;;;;5012768;28;20205;-67
2022/10/27 02:14:42;;;;;;;4.20;2.65;;;10.20;99.90;;;;;;5012998;28;20222;-67
2022/10/27 02:17:12;;;;;;;5.25;2.83;;;10.20;99.90;;;;;;5012812;28;20199;-67
2022/10/27 02:19:42;;;;;;;4.22;2.60;;;10.20;99.90;;;;;;5012829;28;20595;-67
2022/10/27 02:22:11;;;;;;;5.25;2.85;;;10.10;99.90;;;;;;5012651;28;20207;-66
2022/10/27 02:24:39;;;;;;;3.78;2.78;;;10.10;99.90;;;;;;5012895;28;20242;-67
2022/10/27 02:27:11;;;;;;;4.40;2.70;;;10.10;99.90;;;;;;5013044;28;20206;-67
2022/10/27 02:29:41;;;;;;;3.15;2.85;;;10.10;99.90;;;;;;5012733;28;20226;-67
2022/10/27 02:32:12;;;;;;;3.92;2.70;;;10.10;99.90;;;;;;5012381;28;20226;-67
2022/10/27 02:34:41;;;;;;;6.50;2.97;;;10.00;99.90;;;;;;5012683;28;20227;-66
2022/10/27 02:37:09;;;;;;;4.32;2.67;;;10.00;99.90;;;;;;5012838;28;20215;-67
2022/10/27 02:39:36;;;;;;;3.55;2.85;;;10.00;99.90;;;;;;5012470;28;20205;-67
2022/10/27 02:42:03;;;;;;;4.07;2.50;;;10.00;99.90;;;;;;5012207;28;20203;-67
2022/10/27 02:44:30;;;;;;;3.17;2.80;;;10.00;99.90;;;;;;5012315;28;20227;-67
2022/10/27 02:46:57;;;;;;;4.00;2.53;;;10.00;99.90;;;;;;5012614;28;20583;-67
2022/10/27 02:49:25;;;;;;;4.15;3.08;;;10.00;99.90;;;;;;5012444;28;20233;-67
2022/10/27 02:51:51;;;;;;;3.10;2.80;;;9.90;99.90;;;;;;5011961;28;20203;-67
2022/10/27 02:54:18;;;;;;;2.95;2.63;;;10.00;99.90;;;;;;5012146;28;20226;-67
2022/10/27 02:56:45;;;;;;;3.13;2.70;;;9.90;99.90;;;;;;5012593;28;20210;-67
2022/10/27 02:59:12;;;;;;;3.55;2.53;;;9.90;99.90;;;;;;5012176;28;20679;-66
2022/10/27 03:01:38;;;;;;;3.38;2.60;;;9.90;99.90;;;;;;5012092;28;20220;-67
2022/10/27 03:04:05;;;;;;;5.63;2.97;;;9.80;99.90;;;;;;5012159;28;20617;-67
2022/10/27 03:06:34;;;;;;;2.90;2.50;;;9.80;99.90;;;;;;5011999;28;20217;-67
2022/10/27 03:09:00;;;;;;;3.72;2.65;;;9.80;99.90;;;;;;5011978;28;20235;-67
2022/10/27 03:11:27;;;;;;;6.85;2.90;;;9.80;99.90;;;;;;5011496;28;20645;-67
2022/10/27 03:13:54;;;;;;;5.15;3.00;;;9.80;99.90;;;;;;5012057;28;20600;-67
2022/10/27 03:16:20;;;;;;;2.85;2.65;;;9.80;99.90;;;;;;5011850;28;20210;-67
2022/10/27 03:18:47;;;;;;;2.92;2.63;;;9.80;99.90;;;;;;5011985;28;20591;-67
2022/10/27 03:21:14;;;;;;;5.78;2.85;;;9.70;99.90;;;;;;5011472;28;20696;-66
2022/10/27 03:23:42;;;;;;;4.90;2.80;;;9.70;99.90;;;;;;5011840;28;20265;-67
2022/10/27 03:26:09;;;;;;;4.95;2.40;;;9.70;99.90;;;;;;5011957;28;20214;-67
2022/10/27 03:28:37;;;;;;;4.20;3.03;;;9.70;99.90;;;;;;5010928;28;20226;-67
2022/10/27 03:31:04;;;;;;;3.20;2.90;;;9.70;99.90;;;;;;5011660;28;20207;-67
2022/10/27 03:33:31;;;;;;;2.50;2.30;;;9.70;99.90;;;;;;5011167;28;20202;-67
2022/10/27 03:35:58;;;;;;;2.95;2.30;;;9.70;99.90;;;;;;5011674;28;20212;-68
2022/10/27 03:38:25;;;;;;;3.30;2.03;;;9.60;99.90;;;;;;5069574;22;20603;-69
2022/10/27 03:40:53;;;;;;;2.15;1.95;;;9.50;99.90;;;;;;5011566;28;20202;-69
2022/10/27 03:43:20;;;;;;;3.60;2.42;;;9.50;99.90;;;;;;5011398;28;20199;-69
2022/10/27 03:45:48;;;;;;;2.83;2.63;;;9.50;99.90;;;;;;5011426;28;20227;-69
2022/10/27 03:48:15;;;;;;;2.63;2.25;;;9.50;99.90;;;;;;5011683;28;20261;-69
2022/10/27 03:50:46;;;;;;;3.05;2.60;;;9.40;99.90;;;;;;5011459;28;20214;-69
2022/10/27 03:53:13;;;;;;;3.08;2.53;;;9.40;99.90;;;;;;5011238;28;20268;-70
2022/10/27 03:55:40;;;;;;;2.45;2.25;;;9.40;99.90;;;;;;5011369;28;20227;-69
2022/10/27 03:58:11;;;;;;;2.22;2.03;;;9.40;99.90;;;;;;5011528;28;20677;-69
2022/10/27 04:00:37;;;;;;;2.35;2.15;;;9.40;99.90;;;;;;5011304;28;20209;-69
2022/10/27 04:03:04;;;;;;;3.50;2.60;;;9.40;99.90;;;;;;5010874;28;20199;-69
2022/10/27 04:05:31;;;;;;;2.78;2.30;;;9.40;99.90;;;;;;5011248;28;20226;-69
2022/10/27 04:07:58;;;;;;;2.55;2.35;;;9.40;99.90;;;;;;5011191;28;20692;-69
2022/10/27 04:10:25;;;;;;;3.22;2.70;;;9.40;99.90;;;;;;5011283;28;20214;-70
2022/10/27 04:12:54;;;;;;;3.58;2.58;;;9.40;99.90;;;;;;5010930;28;20578;-69
2022/10/27 04:15:24;;;;;;;2.22;2.03;;;9.40;99.90;;;;;;5011187;28;20226;-70
2022/10/27 04:17:52;;;;;;;2.70;2.50;;;9.40;99.90;;;;;;5010952;28;20210;-69
2022/10/27 04:20:19;;;;;;;3.22;2.33;;;9.40;99.90;;;;;;5011143;28;20591;-69
2022/10/27 04:22:46;;;;;;;4.90;2.97;;;9.40;99.90;;;;;;5010495;28;20199;-69
2022/10/27 04:25:13;;;;;;;2.92;2.13;;;9.30;99.90;;;;;;5011025;28;20227;-69
2022/10/27 04:27:40;;;;;;;4.85;2.70;;;9.30;99.90;;;;;;5010948;28;20214;-69
2022/10/27 04:30:07;;;;;;;5.32;3.00;;;9.30;99.90;;;;;;5010961;28;20223;-69
2022/10/27 04:32:36;;;;;;;4.68;3.50;;;9.30;99.90;;;;;;5010473;28;20203;-69
2022/10/27 04:35:02;;;;;;;3.17;2.88;;;9.20;99.90;;;;;;5010815;28;20795;-69
2022/10/27 04:37:29;;;;;;;4.43;2.80;;;9.20;99.90;;;;;;5010947;28;20202;-69
2022/10/27 04:39:56;;;;;;;3.00;2.75;;;9.30;99.90;;;;;;5013944;28;20214;-70
2022/10/27 04:42:22;;;;;;;5.43;3.42;;;9.30;99.90;;;;;;5014547;28;20556;-69
2022/10/27 04:44:49;;;;;;;4.40;3.40;;;9.20;99.90;;;;;;5014706;28;20606;-69
2022/10/27 04:47:16;;;;;;;2.70;2.42;;;9.20;99.90;;;;;;5014838;28;20210;-68
2022/10/27 04:49:44;;;;;;;4.40;2.90;;;9.20;99.90;;;;;;5014570;28;20226;-69
2022/10/27 04:52:11;;;;;;;3.90;3.00;;;9.20;99.90;;;;;;5014346;28;20588;-69
2022/10/27 04:54:37;;;;;;;3.78;2.90;;;9.20;99.90;;;;;;5014583;28;20222;-69
2022/10/27 04:57:04;;;;;;;3.55;3.22;;;9.20;99.90;;;;;;5015052;28;20203;-69
2022/10/27 04:59:31;;;;;;;3.55;3.05;;;9.20;99.90;;;;;;5014558;28;20205;-69
2022/10/27 05:01:58;;;;;;;3.58;3.10;;;9.20;99.90;;;;;;5014090;28;20243;-69
2022/10/27 05:04:24;;;;;;;4.80;2.90;;;9.20;99.90;;;;;;5014505;28;20223;-69
2022/10/27 05:06:52;;;;;;;7.57;3.63;;;9.10;99.90;;;;;;5014407;28;20211;-69
2022/10/27 05:09:19;;;;;;;5.70;3.60;;;9.10;99.90;;;;;;5014350;28;20227;-69
2022/10/27 05:11:46;;;;;;;3.97;3.17;;;9.10;99.90;;;;;;5013818;28;20207;-69
2022/10/27 05:14:12;;;;;;;5.72;3.67;;;9.10;99.90;;;;;;5014377;28;20223;-69
2022/10/27 05:16:39;;;;;;;3.90;3.10;;;9.10;99.90;;;;;;5014159;28;20584;-69
2022/10/27 05:19:06;;;;;;;3.28;2.70;;;9.10;99.90;;;;;;5014453;28;20569;-68
2022/10/27 05:21:33;;;;;;;5.70;3.30;;;9.10;99.90;;;;;;5013742;28;20210;-69
2022/10/27 05:24:01;;;;;;;5.47;3.20;;;9.10;99.90;;;;;;5014247;28;20713;-68
2022/10/27 05:26:28;;;;;;;4.15;3.63;;;9.10;99.90;;;;;;5015073;28;20291;-69
2022/10/27 05:28:54;;;;;;;3.35;2.92;;;9.10;99.90;;;;;;5013958;28;20277;-69
2022/10/27 05:31:21;;;;;;;3.17;2.75;;;9.10;99.90;;;;;;5013657;28;20203;-69
2022/10/27 05:33:48;;;;;;;4.90;3.60;;;9.00;99.90;;;;;;5014002;28;20221;-69
2022/10/27 05:36:14;;;;;;;6.38;3.33;;;9.00;99.90;;;;;;5014131;28;20214;-69
2022/10/27 05:38:41;;;;;;;4.80;2.70;;;9.00;99.90;;;;;;5013662;28;20686;-69
2022/10/27 05:41:10;;;;;;;3.00;2.60;;;9.00;99.90;;;;;;5014123;28;20211;-68
2022/10/27 05:43:37;;;;;;;4.30;3.20;;;9.00;99.90;;;;;;5013551;28;20234;-70
2022/10/27 05:46:04;;;;;;;4.20;2.97;;;9.00;99.90;;;;;;5013868;28;20210;-69
2022/10/27 05:48:31;;;;;;;3.08;2.72;;;9.00;99.90;;;;;;5013946;28;20206;-69
2022/10/27 05:50:58;;;;;;;2.72;2.42;;;9.00;99.90;;;;;;5013051;28;20236;-69
2022/10/27 05:53:25;;;;;;;4.10;2.95;;;9.00;99.90;;;;;;5013208;28;20207;-69
2022/10/27 05:55:53;;;;;;;6.40;3.00;;;9.00;99.90;;;;;;5013538;28;20728;-69
2022/10/27 05:58:21;;;;;;;3.78;3.00;;;9.00;99.90;;;;;;5013666;28;20199;-69
2022/10/27 06:00:48;;;;;;;4.50;2.85;;;8.90;99.90;;;;;;5013719;28;20206;-69
2022/10/27 06:03:20;;;;;;;8.27;3.00;;;8.90;99.90;;;;;;5013204;28;20207;-69
2022/10/27 06:05:48;;;;;;;2.90;2.70;;;8.90;99.90;;;;;;5013342;28;20255;-69
2022/10/27 06:08:14;;;;;;;3.65;3.25;;;8.90;99.90;;;;;;5013683;28;20212;-69
2022/10/27 06:10:41;;;;;;;4.57;2.80;;;9.00;99.90;;;;;;5013099;28;20223;-69
2022/10/27 06:13:12;;;;;;;3.60;2.55;;;9.00;99.90;;;;;;5013194;28;20571;-69
2022/10/27 06:15:41;;;;;;;4.10;2.30;;;9.00;99.90;;;;;;5013247;28;20253;-69
2022/10/27 06:18:07;;;;;;;3.60;3.28;;;8.90;99.90;;;;;;5013332;28;20207;-69
2022/10/27 06:20:34;;;;;;;2.70;2.38;;;8.90;99.90;;;;;;5013368;28;20203;-68
2022/10/27 06:23:01;;;;;;;3.60;2.30;;;8.90;99.90;;;;;;5012907;28;20214;-69
2022/10/27 06:25:28;;;;;;;2.90;2.30;;;8.90;99.90;;;;;;5013137;28;20234;-69
2022/10/27 06:27:54;;;;;;;2.75;2.40;;;8.90;99.90;;;;;;5012980;28;20230;-69
2022/10/27 06:30:21;;;;;;;4.75;2.78;;;8.90;99.90;;;;;;5012892;28;20223;-69
2022/10/27 06:32:49;;;;;;;3.50;2.45;;;8.90;99.90;;;;;;5012523;28;20226;-69
2022/10/27 06:35:17;;;;;;;3.00;2.70;;;9.00;99.90;;;;;;5010542;28;20218;-69
2022/10/27 06:37:45;;;;;;;3.72;3.38;;;8.90;99.90;;;;;;5011169;28;20206;-69
2022/10/27 06:40:13;;;;;;;4.03;2.80;;;9.00;99.90;;;;;;5012525;28;20587;-69
2022/10/27 06:42:50;;;;;;;4.25;3.65;;;9.00;99.90;;;;;;5011472;28;20203;-68
2022/10/27 06:45:20;;;;;;;5.00;3.90;;;9.10;99.90;;;;;;5011481;28;20923;-68
2022/10/27 06:47:57;;;;;;;7.53;4.18;;;9.20;99.90;;;;;;5012459;28;20211;-69
2022/10/27 06:50:25;;;;;;;10.43;4.45;;;9.30;99.90;;;;;;5012292;28;20225;-69
2022/10/27 06:52:52;;;;;;;4.28;3.13;;;9.50;99.90;;;;;;5011808;28;20229;-69
2022/10/27 06:55:19;;;;;;;3.90;3.22;;;9.60;99.90;;;;;;5012025;28;20223;-69
2022/10/27 06:57:48;;;;;;;3.80;3.50;;;9.70;99.90;;;;;;5011851;28;20639;-69
2022/10/27 07:00:16;;;;;;;5.63;4.05;;;9.80;99.90;;;;;;5012011;28;20200;-69
2022/10/27 07:02:43;;;;;;;6.22;3.88;;;9.90;99.90;;;;;;5009627;28;20617;-69
2022/10/27 07:05:12;;;;;;;5.15;3.92;;;10.00;99.90;;;;;;5011484;28;20226;-69
2022/10/27 07:07:39;;;;;;;5.88;3.42;;;10.20;99.90;;;;;;5011423;28;20235;-69
2022/10/27 07:10:08;;;;;;;4.55;4.00;;;10.20;99.90;;;;;;5010412;28;20235;-69
2022/10/27 07:12:34;;;;;;;6.07;3.70;;;10.30;99.90;;;;;;5009959;28;20210;-69
2022/10/27 07:15:01;;;;;;;4.35;3.40;;;10.50;99.90;;;;;;5010731;28;20223;-69
2022/10/27 07:17:28;;;;;;;4.60;3.25;;;10.80;99.90;;;;;;5010791;28;20720;-69
2022/10/27 07:19:55;;;;;;;4.75;4.22;;;11.30;99.90;;;;;;5010379;28;20253;-69
2022/10/27 07:22:23;;;;;;;7.10;3.95;;;11.80;99.90;;;;;;5009769;28;20202;-69
2022/10/27 07:24:50;;;;;;;8.93;5.07;;;12.20;99.90;;;;;;5010444;28;20226;-69
2022/10/27 07:27:16;;;;;;;5.63;4.43;;;12.60;99.90;;;;;;5010335;28;20674;-70
2022/10/27 07:29:43;;;;;;;6.60;4.38;;;12.90;99.90;;;;;;5010455;28;20214;-69
2022/10/27 07:32:10;;;;;;;4.57;3.92;;;13.10;99.90;;;;;;5009977;28;20210;-69
2022/10/27 07:34:36;;;;;;;7.23;4.27;;;13.20;99.90;;;;;;5009635;28;20264;-69
2022/10/27 07:37:03;;;;;;;5.40;4.50;;;13.40;99.90;;;;;;5010329;28;20980;-68
2022/10/27 07:39:32;;;;;;;6.97;4.57;;;13.60;99.90;;;;;;5010613;28;20466;-69
2022/10/27 07:41:58;;;;;;;4.80;3.87;;;13.70;99.90;;;;;;5009522;28;20466;-69
2022/10/27 07:44:25;;;;;;;5.37;3.70;;;13.90;99.90;;;;;;5010148;28;20489;-69
2022/10/27 07:46:53;;;;;;;5.13;3.70;;;14.00;99.90;;;;;;5009819;28;21171;-68
2022/10/27 07:49:19;;;;;;;5.63;4.03;;;14.20;99.90;;;;;;5009636;28;20938;-68
2022/10/27 07:51:46;;;;;;;4.87;4.33;;;14.40;99.90;;;;;;5009388;28;20505;-69
2022/10/27 07:54:13;;;;;;;6.63;4.03;;;14.60;99.90;;;;;;5010867;28;20489;-68
2022/10/27 07:56:41;;;;;;;4.17;3.77;;;14.80;99.90;;;;;;5011068;28;20465;-68
2022/10/27 07:59:08;;;;;;;7.07;3.80;;;15.00;99.90;;;;;;5011521;28;20457;-68
2022/10/27 08:01:34;;;;;;;4.80;3.80;;;15.20;99.90;;;;;;5010797;28;20929;-68
2022/10/27 08:04:01;;;;;;;5.20;3.70;;;15.40;99.90;;;;;;5011228;28;20486;-68
2022/10/27 08:06:28;;;;;;;6.50;3.63;;;15.60;99.90;;;;;;5011194;28;20469;-68
2022/10/27 08:08:55;;;;;;;4.47;3.50;;;15.80;99.90;;;;;;5011169;28;20559;-68
2022/10/27 08:11:22;;;;;;;3.77;3.40;;;16.10;99.90;;;;;;5010857;28;20909;-69
2022/10/27 08:13:51;;;;;;;4.10;2.83;;;16.30;99.90;;;;;;5010685;28;20516;-68
2022/10/27 08:16:17;;;;;;;3.20;2.90;;;16.50;99.90;;;;;;5011180;28;20468;-68
2022/10/27 08:18:44;;;;;;;4.73;2.80;;;16.70;99.90;;;;;;5010718;28;20487;-68
2022/10/27 08:21:11;;;;;;;5.87;3.07;;;16.90;99.90;;;;;;5010677;28;20560;-68
2022/10/27 08:23:39;;;;;;;4.80;4.10;;;17.10;99.90;;;;;;5010723;28;20625;-68
2022/10/27 08:26:06;;;;;;;7.10;2.90;;;17.30;99.90;;;;;;5005485;28;20469;-68
2022/10/27 08:28:33;;;;;;;3.70;2.60;;;17.50;99.90;;;;;;5007371;28;20540;-67
2022/10/27 08:31:01;;;;;;;4.67;2.27;;;17.70;99.90;;;;;;5009466;28;20584;-67
2022/10/27 08:33:27;;;;;;;3.40;2.70;;;17.90;99.90;;;;;;5009295;28;20469;-67
2022/10/27 08:35:54;;;;;;;3.60;2.73;;;18.20;99.90;;;;;;5009823;28;20469;-68
2022/10/27 08:38:21;;;;;;;3.13;2.80;;;18.40;99.90;;;;;;5009781;28;20498;-67
2022/10/27 08:41:03;;;;;;;4.00;2.20;;;18.60;99.90;;;;;;5009546;28;20536;-67
2022/10/27 08:44:04;;;;;;;3.40;2.50;;;18.90;99.90;;;;;;5008942;28;20509;-67
2022/10/27 08:46:38;;;;;;;3.63;2.70;;;19.10;99.90;;;;;;4987589;28;20458;-67
2022/10/27 08:49:11;;;;;;;4.27;2.70;;;19.30;99.90;;;;;;5009755;28;20464;-67
2022/10/27 08:51:40;;;;;;;3.17;2.70;;;19.50;99.90;;;;;;5009065;28;20493;-67
2022/10/27 08:54:09;;;;;;;5.33;2.40;;;19.60;99.90;;;;;;5009659;28;20852;-67
2022/10/27 08:56:40;;;;;;;3.37;2.57;;;19.70;99.90;;;;;;5009127;28;20842;-68
2022/10/27 08:59:14;;;;;;;2.60;2.20;;;19.80;99.90;;;;;;5010007;28;20464;-67
2022/10/27 09:01:47;;;;;;;2.53;2.10;;;19.90;99.90;;;;;;5008772;28;20465;-67
2022/10/27 09:04:26;;;;;;;2.93;2.10;;;20.10;99.90;;;;;;5010142;28;20485;-68
2022/10/27 09:07:06;;;;;;;4.87;2.67;;;20.20;99.90;;;;;;5009549;28;20462;-68
2022/10/27 09:09:42;;;;;;;3.40;2.70;;;20.20;99.90;;;;;;5009204;28;20496;-67
2022/10/27 09:12:17;;;;;;;3.20;2.30;;;20.40;99.90;;;;;;5009328;28;20466;-67
2022/10/27 09:15:16;;;;;;;4.77;2.93;;;20.50;99.90;;;;;;5009418;28;20487;-68
2022/10/27 09:17:48;;;;;;;5.50;2.60;;;20.50;99.90;;;;;;4999017;28;20463;-68
2022/10/27 09:20:23;;;;;;;3.00;2.43;;;20.70;99.90;;;;;;5009069;28;20543;-68
2022/10/27 09:22:53;;;;;;;4.20;2.33;;;20.80;99.90;;;;;;5006732;28;20457;-68
2022/10/27 09:25:21;;;;;;;3.37;2.40;;;21.00;99.90;;;;;;5009722;28;20482;-68
2022/10/27 09:27:52;;;;;;;3.10;1.97;;;21.10;99.90;;;;;;5013102;28;20536;-68
2022/10/27 09:30:19;;;;;;;4.37;2.50;;;21.30;99.90;;;;;;5013161;28;20488;-67
2022/10/27 09:32:52;;;;;;;2.27;1.87;;;21.30;99.90;;;;;;5011965;28;21038;-68
2022/10/27 09:35:23;;;;;;;2.90;2.63;;;21.40;99.90;;;;;;5013237;28;20576;-67
2022/10/27 09:37:50;;;;;;;4.50;2.50;;;21.60;99.90;;;;;;5012684;28;20475;-68
2022/10/27 09:40:19;;;;;;;6.30;2.40;;;21.90;99.90;;;;;;5012999;28;20461;-68
2022/10/27 09:42:47;;;;;;;3.50;2.20;;;22.00;99.90;;;;;;5012388;28;20476;-68
2022/10/27 09:45:16;;;;;;;6.40;2.27;;;22.20;99.90;;;;;;5012620;28;20489;-68
2022/10/27 09:47:46;;;;;;;3.20;1.97;;;22.10;99.90;;;;;;5012637;28;20454;-68
2022/10/27 09:50:21;;;;;;;2.90;2.27;;;21.90;99.90;;;;;;5012930;28;20512;-67
2022/10/27 09:52:48;;;;;;;2.70;2.27;;;21.60;99.90;;;;;;5008862;28;20461;-68
2022/10/27 09:55:16;;;;;;;3.23;2.37;;;21.60;99.90;;;;;;5012596;28;20485;-68
2022/10/27 09:57:46;;;;;;;2.20;2.00;;;21.80;99.90;;;;;;5009415;28;20997;-68
2022/10/27 10:00:25;;;;;;;2.20;1.93;;;22.00;99.90;;;;;;5011500;28;20468;-68
2022/10/27 10:03:01;;;;;;;2.77;2.30;;;22.30;99.90;;;;;;5011233;28;20476;-67
2022/10/27 10:05:32;;;;;;;4.30;2.27;;;22.50;99.90;;;;;;5011863;28;20837;-68
2022/10/27 10:08:13;;;;;;;5.63;2.40;;;22.70;99.90;;;;;;5010992;28;20462;-68
2022/10/27 10:10:52;;;;;;;2.53;2.27;;;22.90;99.90;;;;;;5011515;28;20485;-68
2022/10/27 10:13:21;;;;;;;4.67;2.40;;;23.10;99.90;;;;;;5011378;28;20465;-68
2022/10/27 10:15:48;;;;;;;2.90;2.37;;;23.40;99.90;;;;;;5011018;28;20538;-68
2022/10/27 10:18:24;;;;;;;3.73;2.13;;;23.50;99.90;;;;;;5011439;28;20466;-68
2022/10/27 10:20:58;;;;;;;3.10;2.20;;;23.70;99.90;;;;;;5011141;28;20545;-67
2022/10/27 10:23:27;;;;;;;2.57;1.73;;;23.90;99.90;;;;;;5008392;28;20472;-68
2022/10/27 10:25:57;;;;;;;4.17;2.33;;;24.00;99.90;;;;;;5008978;28;20486;-67
2022/10/27 10:28:32;;;;;;;2.77;1.83;;;24.10;99.90;;;;;;5009210;28;20504;-67
2022/10/27 10:31:01;;;;;;;2.43;2.10;;;24.10;99.90;;;;;;5008518;28;21079;-68
2022/10/27 10:33:31;;;;;;;2.90;2.00;;;24.30;99.90;;;;;;5008255;28;20821;-68
2022/10/27 10:36:01;;;;;;;2.40;1.80;;;24.30;99.90;;;;;;5007937;28;20499;-68
2022/10/27 10:38:36;;;;;;;4.40;2.87;;;24.40;99.90;;;;;;5008608;28;20513;-68
2022/10/27 10:41:10;;;;;;;4.93;2.90;;;24.60;99.90;;;;;;5008757;28;20968;-68
2022/10/27 10:43:38;;;;;;;3.27;2.20;;;24.70;99.90;;;;;;5008208;28;20557;-67
2022/10/27 10:46:05;;;;;;;3.13;2.30;;;24.60;99.90;;;;;;5008306;28;20466;-68
2022/10/27 10:48:38;;;;;;;3.20;2.00;;;24.40;99.90;;;;;;5009059;28;20472;-68
2022/10/27 10:51:08;;;;;;;3.40;2.23;;;24.40;99.90;;;;;;5008152;28;20492;-68
2022/10/27 10:53:41;;;;;;;2.30;1.93;;;24.40;99.90;;;;;;5008307;28;20524;-68
2022/10/27 10:56:22;;;;;;;3.17;2.13;;;24.30;99.90;;;;;;5008563;28;20556;-68
2022/10/27 10:58:53;;;;;;;2.90;2.60;;;24.60;99.90;;;;;;5007488;28;20473;-68
2022/10/27 11:01:20;;;;;;;1.93;1.83;;;24.70;99.90;;;;;;5007449;28;20980;-68
2022/10/27 11:03:49;;;;;;;3.50;2.03;;;24.90;99.90;;;;;;5008256;28;20473;-68
2022/10/27 11:06:20;;;;;;;4.13;1.80;;;24.70;99.90;;;;;;5007660;28;20466;-68
2022/10/27 11:08:57;;;;;;;2.60;1.70;;;24.90;99.90;;;;;;5008527;28;20469;-67
2022/10/27 11:11:27;;;;;;;3.30;2.00;;;24.80;99.90;;;;;;5008329;28;20524;-67
2022/10/27 11:13:58;;;;;;;1.80;1.50;;;24.30;99.90;;;;;;5008899;28;20493;-67
2022/10/27 11:18:55;;;;;;;4.10;2.23;;;24.10;99.90;;;;;;5029848;23;20489;-67
2022/10/27 11:21:30;;;;;;;1.97;1.77;;;24.30;99.90;;;;;;5008229;28;20471;-67
2022/10/27 11:24:00;;;;;;;2.10;1.80;;;24.60;99.90;;;;;;5008258;28;20485;-67
2022/10/27 11:26:32;;;;;;;3.83;2.23;;;24.50;99.90;;;;;;5009050;28;20458;-68
2022/10/27 11:29:10;;;;;;;4.30;1.90;;;24.40;99.90;;;;;;5008620;28;20461;-67
2022/10/27 11:31:44;;;;;;;2.87;1.60;;;24.50;99.90;;;;;;5008425;28;20486;-67
2022/10/27 11:34:20;;;;;;;5.33;2.40;;;24.70;99.90;;;;;;5008425;28;20605;-68
2022/10/27 11:36:54;;;;;;;2.43;1.97;;;24.60;99.90;;;;;;5008353;28;20964;-68
2022/10/27 11:39:24;;;;;;;1.90;1.50;;;24.50;99.90;;;;;;5008499;28;20481;-67
2022/10/27 11:41:58;;;;;;;4.10;1.77;;;24.60;99.90;;;;;;5007800;28;21055;-67
2022/10/27 11:44:31;;;;;;;1.83;1.57;;;24.90;99.90;;;;;;5008571;28;20485;-67
2022/10/27 11:47:05;;;;;;;6.90;1.60;;;25.00;99.90;;;;;;5008027;28;20470;-67
2022/10/27 11:49:39;;;;;;;1.70;1.60;;;25.30;99.90;;;;;;5007737;28;20474;-68
2022/10/27 11:52:15;;;;;;;4.30;1.83;;;25.40;99.90;;;;;;5007515;28;21039;-67
2022/10/27 11:54:42;;;;;;;2.80;1.87;;;25.60;99.90;;;;;;5008002;28;20486;-68
2022/10/27 11:57:25;;;;;;;1.97;1.33;;;25.80;99.90;;;;;;5008118;28;20466;-67
2022/10/27 12:00:06;;;;;;;2.80;1.67;;;26.00;99.90;;;;;;5007612;28;20655;-67
2022/10/27 12:03:07;;;;;;;3.70;1.97;;;26.20;99.90;;;;;;5007671;28;20838;-67
2022/10/27 12:05:42;;;;;;;2.10;1.70;;;26.20;99.90;;;;;;5008043;28;20484;-68
2022/10/27 12:08:29;;;;;;;3.70;2.30;;;26.20;99.90;;;;;;5008146;28;20549;-67
2022/10/27 12:11:07;;;;;;;3.40;2.00;;;26.20;99.90;;;;;;5007405;28;20846;-67
2022/10/27 12:13:42;;;;;;;2.40;1.97;;;26.30;99.90;;;;;;5006527;28;20465;-67
2022/10/27 12:16:15;;;;;;;3.73;1.80;;;26.30;99.90;;;;;;5007803;28;20587;-67
2022/10/27 12:18:47;;;;;;;1.90;1.70;;;26.50;99.90;;;;;;5008146;28;20481;-67
2022/10/27 12:21:19;;;;;;;6.50;2.07;;;26.50;99.90;;;;;;5007194;28;20472;-68
2022/10/27 12:23:55;;;;;;;2.60;1.80;;;26.50;99.90;;;;;;5007718;28;20470;-67
2022/10/27 12:26:29;;;;;;;3.20;1.90;;;26.50;99.90;;;;;;5007744;28;20966;-67
2022/10/27 12:28:57;;;;;;;2.40;1.77;;;26.50;99.90;;;;;;5007358;28;20465;-69
2022/10/27 12:31:27;;;;;;;1.87;1.50;;;26.40;99.90;;;;;;5007425;28;20508;-67
2022/10/27 12:33:56;;;;;;;2.17;1.70;;;26.50;99.90;;;;;;5007709;28;20492;-67
2022/10/27 12:36:31;;;;;;;2.83;1.83;;;26.70;99.90;;;;;;5007115;28;20470;-67
2022/10/27 12:39:11;;;;;;;2.60;1.93;;;26.90;99.90;;;;;;5007086;28;20469;-68
2022/10/27 12:41:44;;;;;;;2.67;1.93;;;26.80;99.90;;;;;;5006839;28;20470;-68
2022/10/27 12:44:19;;;;;;;3.70;2.00;;;26.80;99.90;;;;;;5007035;28;20482;-68
2022/10/27 12:47:01;;;;;;;2.43;1.90;;;26.50;99.90;;;;;;5007459;28;20988;-67
2022/10/27 12:49:36;;;;;;;3.20;2.17;;;26.70;99.90;;;;;;5006637;28;20469;-67
2022/10/27 12:52:10;;;;;;;3.00;1.90;;;26.70;99.90;;;;;;5006764;28;20497;-67
2022/10/27 12:55:00;;;;;;;3.73;1.90;;;26.60;99.90;;;;;;5007126;28;20521;-68
2022/10/27 12:57:38;;;;;;;2.10;1.87;;;26.70;99.90;;;;;;5007374;28;20545;-68
2022/10/27 13:00:10;;;;;;;2.33;1.70;;;26.70;99.90;;;;;;5008510;28;20473;-68
2022/10/27 13:02:44;;;;;;;1.93;1.67;;;26.60;99.90;;;;;;5010355;28;20461;-68
2022/10/27 13:05:38;;;;;;;2.50;1.60;;;26.80;99.90;;;;;;5010896;28;20929;-67
2022/10/27 13:08:35;;;;;;;2.57;1.60;;;26.90;99.90;;;;;;5010934;28;20469;-67